Time;durP1;ratioP1;P1;durP2;ratioP2;P2;SDS_P1;SDS_P2;PMS_P1;PMS_P2;Temp;Humidity;BMP_temperature;BMP_pressure;BME280_temperature;BME280_humidity;BME280_pressure;Samples;Min_cycle;Max_cycle;Signal;HPM_P1;HPM_P2
2023/12/03 00:01:30;;;;;;;17.65;8.27;;;;;;;0.61;100.00;101827.28;7398495;19;20286;-73
2023/12/03 00:03:59;;;;;;;19.88;8.10;;;;;;;0.62;100.00;101823.69;7398401;19;19922;-73
2023/12/03 00:06:28;;;;;;;20.48;8.73;;;;;;;0.60;100.00;101820.28;7398768;19;19942;-73
2023/12/03 00:09:19;;;;;;;22.65;8.40;;;;;;;0.58;100.00;101823.94;7395537;19;20234;-73
2023/12/03 00:11:48;;;;;;;19.60;8.38;;;;;;;0.58;100.00;101818.66;7397627;19;19937;-73
2023/12/03 00:14:17;;;;;;;19.90;7.15;;;;;;;0.57;100.00;101812.50;7396778;19;19959;-73
2023/12/03 00:16:46;;;;;;;26.58;8.38;;;;;;;0.54;100.00;101819.78;7398497;19;19982;-73
2023/12/03 00:19:15;;;;;;;17.25;7.57;;;;;;;0.50;100.00;101819.09;7397738;19;19922;-73
2023/12/03 00:21:44;;;;;;;19.55;7.88;;;;;;;0.47;100.00;101818.44;7397656;19;19935;-73
2023/12/03 00:24:12;;;;;;;16.85;7.30;;;;;;;0.44;100.00;101832.69;7397484;19;19925;-73
2023/12/03 00:26:44;;;;;;;20.42;7.60;;;;;;;0.42;100.00;101834.59;7397981;19;20006;-73
2023/12/03 00:29:12;;;;;;;19.83;8.10;;;;;;;0.40;100.00;101836.47;7397034;19;19926;-73
2023/12/03 00:31:42;;;;;;;39.17;8.90;;;;;;;0.38;100.00;101830.44;7397941;19;19922;-75
2023/12/03 00:34:11;;;;;;;21.75;7.88;;;;;;;0.34;100.00;101824.44;7396407;19;19918;-73
2023/12/03 00:36:40;;;;;;;20.67;7.22;;;;;;;0.32;100.00;101830.75;7397566;19;19910;-73
2023/12/03 00:39:09;;;;;;;19.48;7.32;;;;;;;0.30;100.00;101828.19;7396023;19;19919;-73
2023/12/03 00:41:38;;;;;;;16.10;7.68;;;;;;;0.28;100.00;101832.75;7398687;19;19930;-72
2023/12/03 00:44:09;;;;;;;21.30;8.45;;;;;;;0.26;100.00;101834.59;7399700;19;20408;-73
2023/12/03 00:46:38;;;;;;;20.45;7.55;;;;;;;0.24;100.00;101830.34;7397329;19;19967;-73
2023/12/03 00:49:06;;;;;;;17.38;7.47;;;;;;;0.24;100.00;101838.31;7397644;19;19926;-73
2023/12/03 00:51:35;;;;;;;16.38;7.10;;;;;;;0.22;100.00;101832.22;7397638;19;20559;-73
2023/12/03 00:54:04;;;;;;;15.95;6.88;;;;;;;0.19;100.00;101841.22;7397532;19;20657;-74
2023/12/03 00:56:34;;;;;;;16.00;7.15;;;;;;;0.16;100.00;101836.09;7396550;19;19996;-74
2023/12/03 00:59:02;;;;;;;16.02;6.95;;;;;;;0.16;100.00;101845.84;7397382;19;19989;-74
2023/12/03 01:01:34;;;;;;;17.17;7.88;;;;;;;0.12;100.00;101833.69;7397166;19;19925;-74
2023/12/03 01:04:03;;;;;;;19.45;8.13;;;;;;;0.09;100.00;101831.22;7396806;19;19919;-74
2023/12/03 01:06:32;;;;;;;15.10;6.68;;;;;;;0.08;100.00;101842.75;7397682;19;20257;-74
2023/12/03 01:09:00;;;;;;;19.13;7.80;;;;;;;0.08;100.00;101834.81;7397302;19;20338;-72
2023/12/03 01:11:29;;;;;;;15.52;6.95;;;;;;;0.08;100.00;101837.47;7396066;19;19923;-72
2023/12/03 01:13:58;;;;;;;14.02;6.88;;;;;;;0.05;100.00;101834.97;7395313;19;19925;-72
2023/12/03 01:16:27;;;;;;;15.73;7.03;;;;;;;0.03;100.00;101843.03;7396329;19;20332;-72
2023/12/03 01:18:58;;;;;;;14.13;7.47;;;;;;;0.03;100.00;101844.81;7393897;19;19922;-72
2023/12/03 01:21:28;;;;;;;14.02;5.70;;;;;;;0.02;100.00;101859.00;7396430;19;20543;-72
2023/12/03 01:23:56;;;;;;;15.45;6.10;;;;;;;-0.01;100.00;101855.59;7394942;19;19925;-72
2023/12/03 01:26:25;;;;;;;15.00;7.07;;;;;;;-0.02;100.00;101855.66;7396350;19;19922;-72
2023/12/03 01:28:54;;;;;;;12.45;6.63;;;;;;;-0.04;100.00;101855.72;7393647;19;19942;-72
2023/12/03 01:31:23;;;;;;;14.00;6.35;;;;;;;-0.03;100.00;101862.75;7395884;19;19918;-73
2023/12/03 01:33:52;;;;;;;13.10;6.50;;;;;;;-0.04;100.00;101870.75;7394819;19;19922;-72
2023/12/03 01:36:24;;;;;;;12.52;6.90;;;;;;;-0.06;100.00;101867.38;7395313;19;19927;-72
2023/12/03 01:38:53;;;;;;;12.73;6.50;;;;;;;-0.07;100.00;101878.88;7394213;19;19926;-72
2023/12/03 01:41:22;;;;;;;11.48;6.50;;;;;;;-0.11;100.00;101867.63;7394792;19;19981;-72
2023/12/03 01:43:52;;;;;;;15.15;5.80;;;;;;;-0.15;100.00;101868.72;7392269;19;20340;-72
2023/12/03 01:46:22;;;;;;;13.95;6.75;;;;;;;-0.10;100.00;101882.56;7399402;19;19915;-72
2023/12/03 01:48:52;;;;;;;13.32;6.88;;;;;;;-0.10;100.00;101881.72;7409814;19;19993;-72
2023/12/03 01:51:24;;;;;;;11.82;6.13;;;;;;;-0.10;100.00;101887.00;7407687;19;19918;-72
2023/12/03 01:53:53;;;;;;;11.90;6.10;;;;;;;-0.11;100.00;101893.25;7408613;19;19919;-72
2023/12/03 01:56:22;;;;;;;14.05;5.90;;;;;;;-0.13;100.00;101897.78;7406688;19;19934;-72
2023/12/03 01:58:52;;;;;;;12.38;5.50;;;;;;;-0.17;100.00;101897.06;7409991;19;19914;-72
2023/12/03 02:01:21;;;;;;;12.68;6.43;;;;;;;-0.17;100.00;101904.16;7407636;19;19923;-72
2023/12/03 02:03:49;;;;;;;10.60;5.63;;;;;;;-0.16;100.00;101911.16;7408355;19;20509;-72
2023/12/03 02:06:18;;;;;;;9.90;5.53;;;;;;;-0.18;100.00;101910.41;7407951;19;20558;-72
2023/12/03 02:08:50;;;;;;;10.57;5.55;;;;;;;-0.20;100.00;101907.84;7409137;19;20246;-72
2023/12/03 02:11:19;;;;;;;11.20;5.22;;;;;;;-0.20;100.00;101907.84;7406135;19;19926;-72
2023/12/03 02:13:51;;;;;;;8.43;5.10;;;;;;;-0.20;100.00;101907.84;7408260;19;19929;-72
2023/12/03 02:16:19;;;;;;;;;;;;;;;-0.28;100.00;101925.94;7411036;19;19919;-72
2023/12/03 02:18:48;;;;;;;11.88;5.55;;;;;;;-0.29;100.00;101924.22;7408084;19;19962;-72
2023/12/03 02:21:17;;;;;;;9.23;5.28;;;;;;;-0.32;100.00;101918.22;7408649;19;19935;-72
2023/12/03 02:24:08;;;;;;;10.30;5.72;;;;;;;-0.38;100.00;101930.00;7406198;19;20328;-72
2023/12/03 02:26:37;;;;;;;9.02;4.80;;;;;;;-0.41;100.00;101927.53;7407731;19;19923;-72
2023/12/03 02:29:06;;;;;;;9.30;5.00;;;;;;;-0.46;100.00;101933.06;7404831;19;20354;-72
2023/12/03 02:31:34;;;;;;;9.77;5.25;;;;;;;-0.50;100.00;101936.81;7406923;19;19932;-72
2023/12/03 02:34:09;;;;;;;13.23;5.75;;;;;;;-0.53;100.00;101952.00;7407635;19;19954;-72
2023/12/03 02:36:58;;;;;;;10.50;5.20;;;;;;;-0.57;100.00;101938.06;7405444;19;19926;-72
2023/12/03 02:39:29;;;;;;;10.23;5.43;;;;;;;-0.58;100.00;101940.78;7404734;19;19922;-72
2023/12/03 02:41:58;;;;;;;11.70;5.40;;;;;;;-0.59;100.00;101939.06;7409269;19;19922;-72
2023/12/03 02:44:27;;;;;;;8.82;4.63;;;;;;;-0.61;100.00;101946.25;7405934;19;19912;-72
2023/12/03 02:46:55;;;;;;;11.85;5.88;;;;;;;-0.65;100.00;101944.69;7406541;19;20324;-72
2023/12/03 02:49:24;;;;;;;10.68;5.75;;;;;;;-0.64;100.00;101952.53;7404679;19;19926;-72
2023/12/03 02:51:53;;;;;;;10.45;5.10;;;;;;;-0.65;100.00;101947.34;7409235;19;20655;-72
2023/12/03 02:54:22;;;;;;;9.70;4.70;;;;;;;-0.70;100.00;101944.94;7406973;19;20006;-72
2023/12/03 02:56:53;;;;;;;14.77;6.82;;;;;;;-0.69;100.00;101956.38;7408873;19;19918;-72
2023/12/03 02:59:22;;;;;;;14.30;5.72;;;;;;;-0.70;100.00;101958.16;7399098;19;19942;-72
2023/12/03 03:01:51;;;;;;;13.93;7.00;;;;;;;-0.70;100.00;101962.59;7398996;19;20305;-72
2023/12/03 03:04:19;;;;;;;14.73;5.97;;;;;;;-0.69;100.00;101956.38;7398404;19;19944;-72
2023/12/03 03:06:48;;;;;;;10.48;5.25;;;;;;;-0.69;100.00;101962.50;7401395;19;19918;-72
2023/12/03 03:09:17;;;;;;;13.68;5.50;;;;;;;-0.71;100.00;101963.50;7399178;19;20358;-72
2023/12/03 03:11:46;;;;;;;9.73;5.95;;;;;;;-0.72;100.00;101975.03;7399010;19;19938;-71
2023/12/03 03:14:17;;;;;;;11.10;5.70;;;;;;;-0.72;100.00;101964.44;7399887;19;19998;-72
2023/12/03 03:16:46;;;;;;;14.77;6.18;;;;;;;-0.70;100.00;101978.47;7397988;19;19931;-72
2023/12/03 03:19:15;;;;;;;12.57;5.88;;;;;;;-0.66;100.00;101972.06;7398957;19;20336;-72
2023/12/03 03:21:44;;;;;;;11.52;5.55;;;;;;;-0.63;100.00;101971.91;7397651;19;19929;-72
2023/12/03 03:24:12;;;;;;;12.80;6.03;;;;;;;-0.59;100.00;101970.81;7399876;19;19915;-72
2023/12/03 03:26:42;;;;;;;11.07;5.80;;;;;;;-0.57;100.00;101969.81;7397206;19;20277;-71
2023/12/03 03:29:11;;;;;;;9.70;4.78;;;;;;;-0.55;100.00;101975.88;7398446;19;19922;-72
2023/12/03 03:31:42;;;;;;;10.73;5.43;;;;;;;-0.53;100.00;101967.88;7397676;19;19918;-73
2023/12/03 03:34:31;;;;;;;11.65;5.93;;;;;;;-0.48;100.00;101976.44;7396735;19;19934;-72
2023/12/03 03:37:00;;;;;;;11.32;5.15;;;;;;;-0.44;100.00;101977.97;7399601;19;19918;-72
2023/12/03 03:39:29;;;;;;;11.02;6.18;;;;;;;-0.39;100.00;101977.75;7398178;19;19922;-72
2023/12/03 03:41:58;;;;;;;12.52;5.78;;;;;;;-0.37;100.00;101979.38;7399604;19;19918;-72
2023/12/03 03:44:27;;;;;;;13.90;5.65;;;;;;;-0.30;100.00;101982.56;7398063;19;19986;-72
2023/12/03 03:46:58;;;;;;;14.82;7.00;;;;;;;-0.26;100.00;101981.47;7398539;19;19922;-72
2023/12/03 03:49:27;;;;;;;15.98;6.15;;;;;;;-0.24;100.00;101975.13;7397973;19;19922;-72
2023/12/03 03:51:57;;;;;;;28.95;7.38;;;;;;;-0.21;100.00;101982.91;7398880;19;19922;-71
2023/12/03 03:54:25;;;;;;;15.65;6.95;;;;;;;-0.18;100.00;101990.72;7397432;19;20356;-72
2023/12/03 03:56:54;;;;;;;30.73;7.93;;;;;;;-0.15;100.00;101995.84;7399691;19;20315;-72
2023/12/03 03:59:23;;;;;;;13.77;6.95;;;;;;;-0.13;100.00;101993.13;7398499;19;19930;-72
2023/12/03 04:01:52;;;;;;;21.80;8.80;;;;;;;-0.09;100.00;101994.66;7398608;19;19925;-72
2023/12/03 04:04:23;;;;;;;14.88;7.97;;;;;;;-0.04;100.00;102001.41;7398288;19;20363;-72
2023/12/03 04:06:52;;;;;;;13.38;6.75;;;;;;;-0.03;100.00;102000.47;7398411;19;19931;-72
2023/12/03 04:09:21;;;;;;;15.38;6.65;;;;;;;0.00;100.00;102000.31;7393457;19;19926;-72
2023/12/03 04:11:50;;;;;;;19.35;7.57;;;;;;;0.02;100.00;101997.59;7396091;19;19929;-75
2023/12/03 04:14:19;;;;;;;14.77;7.90;;;;;;;0.04;100.00;101995.72;7398279;19;19911;-73
2023/12/03 04:16:48;;;;;;;13.13;6.70;;;;;;;0.06;100.00;102000.91;7398422;19;20528;-73
2023/12/03 04:19:17;;;;;;;13.65;7.05;;;;;;;0.07;100.00;102002.63;7398380;19;19981;-73
2023/12/03 04:21:50;;;;;;;16.85;6.63;;;;;;;0.10;100.00;101999.81;7396157;19;19926;-73
2023/12/03 04:24:19;;;;;;;10.85;6.05;;;;;;;0.14;100.00;101998.72;7397148;19;20284;-73
2023/12/03 04:26:48;;;;;;;13.93;7.43;;;;;;;0.14;100.00;101991.63;7397697;19;20203;-73
2023/12/03 04:29:16;;;;;;;9.90;6.57;;;;;;;0.13;100.00;101997.84;7398523;19;19978;-73
2023/12/03 04:31:45;;;;;;;16.95;6.40;;;;;;;0.12;100.00;102000.59;7397406;19;20314;-73
2023/12/03 04:34:15;;;;;;;23.65;7.18;;;;;;;0.10;100.00;102007.75;7398317;19;19927;-73
2023/12/03 04:36:45;;;;;;;51.70;8.27;;;;;;;0.07;100.00;102010.59;7397274;19;19923;-73
2023/12/03 04:39:16;;;;;;;40.53;8.02;;;;;;;-0.01;100.00;102003.06;7397157;19;19918;-73
2023/12/03 04:41:45;;;;;;;54.08;7.35;;;;;;;-0.11;100.00;102007.13;7397656;19;19933;-72
2023/12/03 04:44:14;;;;;;;24.95;6.60;;;;;;;-0.17;100.00;102005.63;7397053;19;19939;-72
2023/12/03 04:46:43;;;;;;;27.65;7.75;;;;;;;-0.19;100.00;102007.53;7397631;19;20392;-72
2023/12/03 04:49:15;;;;;;;33.35;7.28;;;;;;;-0.19;100.00;102012.81;7397037;19;19986;-73
2023/12/03 04:51:44;;;;;;;64.30;8.20;;;;;;;-0.17;100.00;102007.44;7396567;19;19978;-73
2023/12/03 04:54:35;;;;;;;30.23;9.00;;;;;;;-0.18;100.00;102006.59;7394961;19;19926;-72
2023/12/03 04:57:04;;;;;;;33.90;8.57;;;;;;;-0.15;100.00;102017.03;7398886;19;19985;-73
2023/12/03 04:59:33;;;;;;;50.42;12.73;;;;;;;-0.16;100.00;102023.25;7398346;19;20316;-73
2023/12/03 05:02:02;;;;;;;68.20;15.07;;;;;;;-0.15;100.00;102021.47;7397981;19;19919;-72
2023/12/03 05:04:31;;;;;;;84.85;17.92;;;;;;;-0.15;100.00;102019.69;7399394;19;19922;-72
2023/12/03 05:06:59;;;;;;;90.90;18.40;;;;;;;-0.12;100.00;102026.59;7398892;19;20297;-72
2023/12/03 05:09:28;;;;;;;150.02;19.98;;;;;;;-0.11;100.00;102018.56;7399863;19;20533;-72
2023/12/03 05:12:00;;;;;;;107.10;21.52;;;;;;;-0.10;100.00;102024.72;7397611;19;19936;-73
2023/12/03 05:14:29;;;;;;;132.30;20.67;;;;;;;-0.08;100.00;102015.75;7397775;19;19957;-72
2023/12/03 05:16:58;;;;;;;87.35;22.00;;;;;;;-0.06;100.00;102023.63;7396318;19;19921;-72
2023/12/03 05:19:27;;;;;;;95.82;24.30;;;;;;;-0.05;100.00;102020.06;7396562;19;19962;-72
2023/12/03 05:21:56;;;;;;;129.63;25.17;;;;;;;-0.03;100.00;102021.66;7393386;19;19925;-72
2023/12/03 05:24:24;;;;;;;112.43;25.00;;;;;;;0.01;100.00;102027.66;7395430;19;19918;-72
2023/12/03 05:26:53;;;;;;;164.63;27.40;;;;;;;0.00;100.00;102029.44;7395013;19;19933;-72
2023/12/03 05:29:25;;;;;;;162.43;30.20;;;;;;;0.00;100.00;102031.25;7396221;19;19953;-73
2023/12/03 05:31:54;;;;;;;119.50;28.52;;;;;;;0.01;100.00;102027.66;7394752;19;20348;-72
2023/12/03 05:34:24;;;;;;;158.18;31.58;;;;;;;0.06;100.00;102032.72;7396043;19;19939;-72
2023/12/03 05:36:54;;;;;;;105.18;27.98;;;;;;;0.08;100.00;102034.34;7395560;19;19929;-72
2023/12/03 05:39:22;;;;;;;168.35;28.50;;;;;;;0.10;100.00;102037.78;7392907;19;20323;-72
2023/12/03 05:41:51;;;;;;;141.32;31.63;;;;;;;0.12;100.00;102041.22;7396702;19;20475;-72
2023/12/03 05:44:20;;;;;;;127.72;30.02;;;;;;;0.13;100.00;102042.06;7394921;19;19926;-73
2023/12/03 05:46:52;;;;;;;84.78;30.13;;;;;;;0.16;100.00;102040.09;7394983;19;19922;-72
2023/12/03 05:49:41;;;;;;;122.45;28.15;;;;;;;0.18;100.00;102051.47;7394004;19;19931;-72
2023/12/03 05:52:10;;;;;;;121.57;28.38;;;;;;;0.18;100.00;102037.34;7395355;19;19921;-72
2023/12/03 05:54:39;;;;;;;101.63;25.63;;;;;;;0.18;100.00;102042.66;7395134;19;19925;-72
2023/12/03 05:57:08;;;;;;;116.20;25.13;;;;;;;0.19;100.00;102044.38;7395753;19;19940;-72
2023/12/03 05:59:36;;;;;;;74.18;19.77;;;;;;;0.19;100.00;102036.41;7396424;19;20556;-72
2023/12/03 06:02:08;;;;;;;101.30;20.13;;;;;;;0.20;100.00;102043.44;7395045;19;19922;-72
2023/12/03 06:04:37;;;;;;;77.22;18.15;;;;;;;0.17;100.00;102043.63;7393808;19;19918;-72
2023/12/03 06:07:06;;;;;;;83.03;18.10;;;;;;;0.17;100.00;102048.91;7394643;19;19918;-72
2023/12/03 06:09:35;;;;;;;61.50;13.95;;;;;;;0.17;100.00;102054.22;7393402;19;19935;-72
2023/12/03 06:12:04;;;;;;;57.90;14.80;;;;;;;0.17;100.00;102052.41;7393647;19;19943;-72
2023/12/03 06:14:33;;;;;;;31.25;9.68;;;;;;;0.16;100.00;102063.09;7394431;19;19915;-72
2023/12/03 06:17:02;;;;;;;31.30;9.82;;;;;;;0.15;100.00;102056.06;7393846;19;19919;-72
2023/12/03 06:19:34;;;;;;;33.45;8.10;;;;;;;0.18;100.00;102051.47;7394784;19;19911;-71
2023/12/03 06:22:03;;;;;;;37.80;8.80;;;;;;;0.19;100.00;102047.03;7393218;19;19942;-72
2023/12/03 06:24:52;;;;;;;30.65;8.82;;;;;;;0.20;100.00;102049.59;7390960;19;19922;-72
2023/12/03 06:27:21;;;;;;;40.83;9.07;;;;;;;0.24;100.00;102051.16;7389776;19;19929;-72
2023/12/03 06:29:50;;;;;;;50.08;9.50;;;;;;;0.26;100.00;102053.72;7391955;19;19923;-72
2023/12/03 06:32:19;;;;;;;45.97;10.13;;;;;;;0.25;100.00;102060.81;7394664;19;19949;-71
2023/12/03 06:34:51;;;;;;;67.28;9.20;;;;;;;0.23;100.00;102051.22;7398530;19;19927;-72
2023/12/03 06:37:20;;;;;;;56.30;7.70;;;;;;;0.24;100.00;102060.88;7399069;19;19974;-72
2023/12/03 06:39:50;;;;;;;38.17;8.43;;;;;;;0.28;100.00;102063.28;7400525;19;19926;-72
2023/12/03 06:42:19;;;;;;;45.80;7.40;;;;;;;0.28;100.00;102062.44;7399868;19;20321;-72
2023/12/03 06:44:48;;;;;;;29.33;7.85;;;;;;;0.29;100.00;102065.00;7397845;19;19933;-72
2023/12/03 06:47:17;;;;;;;29.98;8.00;;;;;;;0.30;100.00;102066.69;7397917;19;20567;-72
2023/12/03 06:49:47;;;;;;;19.67;7.53;;;;;;;0.33;100.00;102076.28;7399896;19;20394;-72
2023/12/03 06:52:19;;;;;;;18.98;7.50;;;;;;;0.32;100.00;102066.63;7399063;19;20396;-71
2023/12/03 06:54:48;;;;;;;28.70;7.68;;;;;;;0.32;100.00;102067.50;7400755;19;20355;-72
2023/12/03 06:57:17;;;;;;;19.17;7.63;;;;;;;0.34;100.00;102078.88;7398979;19;20344;-72
2023/12/03 06:59:46;;;;;;;29.77;9.32;;;;;;;0.35;100.00;102079.69;7397600;19;19918;-72
2023/12/03 07:02:15;;;;;;;18.73;7.47;;;;;;;0.36;100.00;102071.69;7400304;19;20248;-72
2023/12/03 07:04:44;;;;;;;20.67;6.95;;;;;;;0.35;100.00;102085.88;7400166;19;19950;-72
2023/12/03 07:07:13;;;;;;;27.52;6.78;;;;;;;0.37;100.00;102083.13;7400198;19;20528;-72
2023/12/03 07:09:45;;;;;;;28.90;7.85;;;;;;;0.37;100.00;102088.44;7400079;19;19915;-72
2023/12/03 07:12:14;;;;;;;33.75;8.65;;;;;;;0.38;100.00;102090.16;7399177;19;19922;-71
2023/12/03 07:14:43;;;;;;;15.65;6.70;;;;;;;0.38;100.00;102091.03;7401610;19;20301;-72
2023/12/03 07:17:12;;;;;;;25.38;7.68;;;;;;;0.39;100.00;102100.66;7400727;19;19919;-72
2023/12/03 07:19:45;;;;;;;24.65;7.22;;;;;;;0.40;100.00;102090.91;7402146;19;19943;-72
2023/12/03 07:22:14;;;;;;;22.23;7.47;;;;;;;0.41;100.00;102100.59;7401990;19;19918;-72
2023/12/03 07:24:46;;;;;;;27.60;8.00;;;;;;;0.42;100.00;102104.97;7400289;19;19934;-71
2023/12/03 07:27:15;;;;;;;25.90;8.55;;;;;;;0.40;100.00;102098.88;7399014;19;19953;-72
2023/12/03 07:29:44;;;;;;;31.20;9.10;;;;;;;0.40;100.00;102104.19;7399299;19;19982;-72
2023/12/03 07:32:14;;;;;;;22.77;8.40;;;;;;;0.41;100.00;102108.53;7399943;19;20193;-72
2023/12/03 07:34:43;;;;;;;25.05;9.82;;;;;;;0.40;100.00;102115.63;7398574;19;19923;-71
2023/12/03 07:37:13;;;;;;;26.92;9.93;;;;;;;0.40;100.00;102110.34;7397987;19;19972;-72
2023/12/03 07:39:42;;;;;;;47.38;10.82;;;;;;;0.39;100.00;102108.63;7399303;19;19919;-72
2023/12/03 07:42:14;;;;;;;34.75;10.68;;;;;;;0.40;100.00;102114.78;7396897;19;19945;-72
2023/12/03 07:44:43;;;;;;;32.85;9.15;;;;;;;0.42;100.00;102118.22;7394905;19;20261;-72
2023/12/03 07:47:12;;;;;;;39.33;9.60;;;;;;;0.41;100.00;102113.84;7396247;19;20479;-72
2023/12/03 07:49:40;;;;;;;23.52;9.82;;;;;;;0.40;100.00;102114.78;7400154;19;20272;-72
2023/12/03 07:52:09;;;;;;;27.55;11.02;;;;;;;0.44;100.00;102121.63;7400209;19;19922;-72
2023/12/03 07:54:58;;;;;;;32.00;9.95;;;;;;;0.42;100.00;102123.53;7398746;19;19918;-72
2023/12/03 07:57:30;;;;;;;28.33;9.70;;;;;;;0.42;100.00;102128.81;7397638;19;19923;-72
2023/12/03 07:59:59;;;;;;;30.13;10.38;;;;;;;0.38;100.00;102122.84;7397291;19;19918;-72
2023/12/03 08:02:28;;;;;;;23.75;9.18;;;;;;;0.45;100.00;102128.66;7396060;19;19929;-72
2023/12/03 08:04:57;;;;;;;30.98;9.73;;;;;;;0.48;100.00;102133.78;7394157;19;20312;-72
2023/12/03 08:07:26;;;;;;;30.00;10.23;;;;;;;0.46;100.00;102125.06;7395469;19;19926;-72
2023/12/03 08:09:55;;;;;;;24.02;10.32;;;;;;;0.49;100.00;102132.00;7399033;19;19918;-72
2023/12/03 08:12:24;;;;;;;28.60;10.02;;;;;;;0.50;100.00;102133.72;7396462;19;20299;-72
2023/12/03 08:14:56;;;;;;;31.23;9.85;;;;;;;0.47;100.00;102132.91;7397621;19;19918;-72
2023/12/03 08:17:25;;;;;;;25.13;9.00;;;;;;;0.51;100.00;102140.72;7397896;19;19926;-74
2023/12/03 08:19:54;;;;;;;25.00;9.75;;;;;;;0.53;100.00;102142.34;7399436;19;19919;-73
2023/12/03 08:22:23;;;;;;;32.67;9.93;;;;;;;0.54;100.00;102143.22;7396506;19;19982;-74
2023/12/03 08:24:52;;;;;;;32.60;9.50;;;;;;;0.55;100.00;102144.94;7396135;19;19922;-74
2023/12/03 08:27:22;;;;;;;44.10;10.13;;;;;;;0.54;100.00;102144.06;7396449;19;19946;-72
2023/12/03 08:29:52;;;;;;;40.28;11.20;;;;;;;0.56;100.00;102146.66;7395568;19;19962;-72
2023/12/03 08:32:23;;;;;;;30.77;10.35;;;;;;;0.52;100.00;102139.81;7394380;19;19990;-72
2023/12/03 08:34:53;;;;;;;42.03;10.25;;;;;;;0.56;100.00;102147.47;7396668;19;19962;-72
2023/12/03 08:37:23;;;;;;;29.15;9.10;;;;;;;0.58;100.00;102152.72;7396907;19;19922;-72
2023/12/03 08:39:52;;;;;;;28.73;10.43;;;;;;;0.58;100.00;102145.63;7396629;19;20283;-72
2023/12/03 08:42:21;;;;;;;27.20;9.25;;;;;;;0.62;100.00;102149.81;7394306;19;20361;-72
2023/12/03 08:44:51;;;;;;;31.70;10.98;;;;;;;0.63;100.00;102142.72;7394647;19;19918;-71
2023/12/03 08:47:21;;;;;;;26.77;9.02;;;;;;;0.67;100.00;102157.53;7395834;19;19925;-71
2023/12/03 08:49:53;;;;;;;27.95;8.65;;;;;;;0.71;100.00;102153.78;7395405;19;19929;-72
2023/12/03 08:52:22;;;;;;;28.95;10.30;;;;;;;0.73;100.00;102154.56;7397064;19;19921;-72
2023/12/03 08:54:51;;;;;;;31.80;9.52;;;;;;;0.75;100.00;102161.47;7394965;19;19931;-72
2023/12/03 08:57:22;;;;;;;28.15;10.45;;;;;;;0.75;100.00;102156.19;7391706;19;19934;-72
2023/12/03 08:59:53;;;;;;;29.98;9.70;;;;;;;0.76;100.00;102159.69;7395768;19;19919;-72
2023/12/03 09:02:22;;;;;;;24.25;8.93;;;;;;;0.78;100.00;102169.25;7397254;19;19982;-72
2023/12/03 09:04:54;;;;;;;31.40;9.13;;;;;;;0.80;100.00;102171.84;7396732;19;19926;-72
2023/12/03 09:07:24;;;;;;;26.88;9.88;;;;;;;0.81;100.00;102178.88;7396428;19;19929;-72
2023/12/03 09:09:53;;;;;;;27.00;9.18;;;;;;;0.83;100.00;102179.63;7397579;19;19966;-72
2023/12/03 09:12:22;;;;;;;31.25;9.15;;;;;;;0.84;100.00;102182.22;7396494;19;19922;-72
2023/12/03 09:14:51;;;;;;;26.60;9.77;;;;;;;0.86;100.00;102187.44;7395564;19;19922;-72
2023/12/03 09:17:20;;;;;;;22.13;7.78;;;;;;;0.85;100.00;102183.06;7396830;19;19936;-72
2023/12/03 09:19:49;;;;;;;24.23;7.85;;;;;;;0.87;100.00;102184.69;7396733;19;19922;-72
2023/12/03 09:22:20;;;;;;;21.30;8.00;;;;;;;0.86;100.00;102188.25;7396529;19;19948;-72
2023/12/03 09:24:49;;;;;;;23.27;7.40;;;;;;;0.88;100.00;102183.75;7396004;19;19924;-72
2023/12/03 09:27:18;;;;;;;22.88;8.80;;;;;;;0.91;100.00;102195.97;7396296;19;20316;-72
2023/12/03 09:29:47;;;;;;;21.10;8.35;;;;;;;0.93;100.00;102187.94;7396422;19;20014;-72
2023/12/03 09:32:16;;;;;;;21.10;8.00;;;;;;;0.94;100.00;102194.97;7397961;19;19946;-75
2023/12/03 09:35:05;;;;;;;18.83;7.22;;;;;;;0.93;100.00;102195.91;7397260;19;19974;-72
2023/12/03 09:37:37;;;;;;;22.45;8.02;;;;;;;0.94;100.00;102187.00;7397987;19;19933;-72
2023/12/03 09:40:07;;;;;;;19.98;7.38;;;;;;;0.97;100.00;102189.50;7396327;19;19914;-72
2023/12/03 09:42:39;;;;;;;18.67;7.15;;;;;;;0.98;100.00;102197.38;7396366;19;20337;-72
2023/12/03 09:45:11;;;;;;;21.35;6.72;;;;;;;0.98;100.00;102186.78;7396018;19;19947;-72
2023/12/03 09:47:40;;;;;;;20.23;7.32;;;;;;;0.97;100.00;102185.06;7395610;19;19922;-72
2023/12/03 09:50:10;;;;;;;19.50;6.80;;;;;;;0.96;100.00;102195.72;7396543;19;19945;-72
2023/12/03 09:52:45;;;;;;;23.30;7.78;;;;;;;0.99;100.00;102200.91;7394433;19;20368;-72
2023/12/03 09:55:14;;;;;;;23.10;7.70;;;;;;;0.99;100.00;102188.50;7395099;19;19974;-72
2023/12/03 09:57:45;;;;;;;19.23;6.85;;;;;;;1.01;100.00;102188.38;7396132;19;20238;-72
2023/12/03 10:00:34;;;;;;;18.02;6.78;;;;;;;1.08;100.00;102187.97;7394086;19;19933;-72
2023/12/03 10:03:04;;;;;;;18.13;6.65;;;;;;;1.13;100.00;102185.06;7394817;19;19982;-72
2023/12/03 10:05:33;;;;;;;21.00;7.07;;;;;;;1.15;100.00;102185.84;7394676;19;19923;-72
2023/12/03 10:08:06;;;;;;;19.85;7.93;;;;;;;1.21;100.00;102194.31;7398929;19;19930;-72
2023/12/03 10:10:40;;;;;;;17.67;7.10;;;;;;;1.22;100.00;102188.06;7397697;19;19926;-72
2023/12/03 10:13:11;;;;;;;16.65;6.28;;;;;;;1.23;100.00;102189.78;7401592;19;19930;-72
2023/12/03 10:15:41;;;;;;;18.83;6.60;;;;;;;1.20;100.00;102191.75;7400867;19;20416;-72
2023/12/03 10:18:10;;;;;;;21.98;7.28;;;;;;;1.18;100.00;102178.56;7402048;19;19910;-72
2023/12/03 10:20:40;;;;;;;22.80;7.60;;;;;;;1.23;100.00;102175.66;7401986;19;19939;-74
2023/12/03 10:23:18;;;;;;;21.65;6.97;;;;;;;1.25;100.00;102165.81;7399620;19;20392;-75
2023/12/03 10:25:47;;;;;;;23.65;7.88;;;;;;;1.26;100.00;102164.84;7402927;19;19923;-75
2023/12/03 10:28:15;;;;;;;18.60;6.57;;;;;;;1.31;100.00;102162.81;7399905;19;19926;-73
2023/12/03 10:30:45;;;;;;;22.23;8.52;;;;;;;1.31;100.00;102162.81;7401791;19;19914;-75
2023/12/03 10:33:14;;;;;;;21.60;8.27;;;;;;;1.31;100.00;102163.66;7399520;19;19923;-74
2023/12/03 10:35:43;;;;;;;21.50;8.50;;;;;;;1.32;100.00;102165.38;7402380;19;19926;-75
2023/12/03 10:38:15;;;;;;;19.90;8.07;;;;;;;1.33;100.00;102151.19;7400101;19;19978;-72
2023/12/03 10:40:44;;;;;;;26.13;9.02;;;;;;;1.38;100.00;102153.56;7400899;19;19923;-72
2023/12/03 10:43:14;;;;;;;27.95;8.63;;;;;;;1.42;100.00;102147.16;7399347;19;19987;-73
2023/12/03 10:45:43;;;;;;;23.50;8.80;;;;;;;1.45;100.00;102154.94;7401508;19;19922;-73
2023/12/03 10:48:13;;;;;;;24.10;9.75;;;;;;;1.44;100.00;102147.91;7399928;19;19950;-73
2023/12/03 10:50:45;;;;;;;28.45;10.38;;;;;;;1.46;100.00;102153.13;7398180;19;19950;-73
2023/12/03 10:53:18;;;;;;;23.45;9.02;;;;;;;1.45;100.00;102149.63;7400870;19;19911;-73
2023/12/03 10:55:48;;;;;;;23.77;9.98;;;;;;;1.46;100.00;102146.03;7400272;19;19915;-73
2023/12/03 10:58:19;;;;;;;28.20;9.93;;;;;;;1.51;100.00;102149.25;7400305;19;19919;-73
2023/12/03 11:00:55;;;;;;;22.40;9.25;;;;;;;1.59;100.00;102144.38;7400456;19;19918;-73
2023/12/03 11:03:33;;;;;;;22.17;9.98;;;;;;;1.68;100.00;102141.16;7399412;19;19919;-73
2023/12/03 11:06:05;;;;;;;;;;;;;;;1.70;100.00;102131.31;7401548;19;19930;-72
2023/12/03 11:08:37;;;;;;;25.80;9.73;;;;;;;1.79;100.00;102130.78;7399838;19;19926;-72
2023/12/03 11:11:26;;;;;;;24.73;8.77;;;;;;;1.83;100.00;102120.84;7398071;19;19921;-72
2023/12/03 11:13:57;;;;;;;21.75;9.63;;;;;;;1.88;100.00;102120.56;7398461;19;20229;-72
2023/12/03 11:16:29;;;;;;;26.10;10.40;;;;;;;1.87;100.00;102117.03;7398674;19;19918;-73
2023/12/03 11:19:04;;;;;;;26.75;10.43;;;;;;;1.91;100.00;102115.91;7395484;19;19934;-72
2023/12/03 11:21:44;;;;;;;28.23;10.70;;;;;;;2.06;100.00;102122.13;7395795;19;19938;-72
2023/12/03 11:24:39;;;;;;;29.95;10.32;;;;;;;2.14;100.00;102109.22;7398979;19;19953;-72
2023/12/03 11:27:08;;;;;;;28.23;11.88;;;;;;;2.29;100.00;102108.28;7400245;19;20012;-72
2023/12/03 11:29:51;;;;;;;28.38;12.48;;;;;;;2.32;100.00;102116.09;7397787;19;20548;-72